Pecos, New Mexico
Current Conditions -  °F | °C
As of 4:53 PM on Wednesday 22 Oct 2014 (Local Time) from KSAF Reporting Station
Broken Clouds Broken Clouds  
Wind Chill: 70°   Ceiling: 7000
Heat Index: 70°   Visibility: 10mi
Dew Point: 37°   Wind: 0mph
Humidity: 30%   Direction: NA
Pressure: 30.16"   Gusts: NA
Location:  35.57°N, 105.68°W
Report Text: KSAF 222253Z 00000KT 10SM BKN070 21/03 A3016 RMK AO2 SLP136 T02110028
Loading
Personal Weather Stations






























Interactive Weather Map
Tropical Storm Tracking
New forecast layout! Learn more

10-Day Weather Forecast

Advertisements
Track Severe Weather on mobile